createdAt,value
2023-06-28T00:00:06.016Z,3.38
2023-06-28T00:01:18.861Z,3.17
2023-06-28T00:02:22.045Z,3.47
2023-06-28T00:03:24.142Z,4.05
2023-06-28T00:04:26.038Z,4.38
2023-06-28T00:05:27.877Z,4.22
2023-06-28T00:06:32.509Z,4.32
2023-06-28T00:07:34.714Z,3.75
2023-06-28T00:08:36.632Z,4.75
2023-06-28T00:09:38.522Z,5.03
2023-06-28T00:10:40.485Z,4.50
2023-06-28T00:11:42.745Z,3.75
2023-06-28T00:12:44.639Z,4.63
2023-06-28T00:13:46.565Z,3.13
2023-06-28T00:14:48.820Z,4.70
2023-06-28T00:15:50.903Z,3.92
2023-06-28T00:16:52.850Z,3.10
2023-06-28T00:17:54.908Z,4.13
2023-06-28T00:19:01.565Z,4.05
2023-06-28T00:20:09.346Z,4.70
2023-06-28T00:21:14.597Z,4.72
2023-06-28T00:22:16.607Z,4.72
2023-06-28T00:23:18.413Z,7.25
2023-06-28T00:24:20.286Z,3.38
2023-06-28T00:25:22.294Z,3.50
2023-06-28T00:26:24.370Z,3.65
2023-06-28T00:27:26.664Z,4.63
2023-06-28T00:28:28.652Z,3.47
2023-06-28T00:29:31.125Z,3.92
2023-06-28T00:30:34.316Z,4.15
2023-06-28T00:31:36.289Z,3.75
2023-06-28T00:32:38.554Z,4.50
2023-06-28T00:33:41.874Z,3.70
2023-06-28T00:34:43.789Z,5.25
2023-06-28T00:35:45.620Z,3.22
2023-06-28T00:36:47.452Z,3.28
2023-06-28T00:37:49.244Z,3.70
2023-06-28T00:38:51.095Z,3.50
2023-06-28T00:39:52.927Z,3.45
2023-06-28T00:40:55.201Z,3.40
2023-06-28T00:41:57.059Z,3.88
2023-06-28T00:42:58.976Z,3.58
2023-06-28T00:44:01.010Z,4.10
2023-06-28T00:45:02.975Z,3.92
2023-06-28T00:46:04.831Z,3.80
2023-06-28T00:47:07.899Z,3.67
2023-06-28T00:48:11.843Z,4.55
2023-06-28T00:49:13.692Z,3.60
2023-06-28T00:50:16.357Z,4.32
2023-06-28T00:51:18.557Z,3.97
2023-06-28T00:52:20.616Z,4.13
2023-06-28T00:53:22.756Z,3.75
2023-06-28T00:54:24.840Z,3.60
2023-06-28T00:55:27.777Z,4.25
2023-06-28T00:56:30.560Z,3.55
2023-06-28T00:57:32.707Z,5.53
2023-06-28T00:58:34.605Z,3.88
2023-06-28T00:59:36.823Z,3.83
2023-06-28T01:00:38.762Z,3.72
2023-06-28T01:01:40.807Z,3.80
2023-06-28T01:02:46.027Z,3.70
2023-06-28T01:03:51.829Z,4.20
2023-06-28T01:04:59.182Z,3.60
2023-06-28T01:06:01.035Z,3.80
2023-06-28T01:07:04.469Z,4.03
2023-06-28T01:08:08.177Z,3.45
2023-06-28T01:09:12.764Z,4.10
2023-06-28T01:10:18.376Z,3.95
2023-06-28T01:11:20.707Z,3.63
2023-06-28T01:12:22.773Z,3.75
2023-06-28T01:13:25.102Z,4.00
2023-06-28T01:14:27.054Z,3.83
2023-06-28T01:15:29.272Z,4.05
2023-06-28T01:16:31.482Z,4.00
2023-06-28T01:17:33.430Z,3.88
2023-06-28T01:18:36.435Z,3.80
2023-06-28T01:19:38.381Z,5.47
2023-06-28T01:20:40.537Z,3.47
2023-06-28T01:21:46.682Z,4.00
2023-06-28T01:22:55.328Z,3.63
2023-06-28T01:23:57.201Z,3.60
2023-06-28T01:24:59.354Z,4.43
2023-06-28T01:26:03.725Z,3.55
2023-06-28T01:27:09.697Z,3.72
2023-06-28T01:28:12.909Z,3.60
2023-06-28T01:29:14.965Z,3.50
2023-06-28T01:30:17.268Z,3.65
2023-06-28T01:31:19.689Z,3.80
2023-06-28T01:32:21.562Z,3.50
2023-06-28T01:33:23.497Z,3.65
2023-06-28T01:34:29.380Z,3.63
2023-06-28T01:35:32.987Z,3.45
2023-06-28T01:36:35.343Z,3.30
2023-06-28T01:37:38.986Z,3.60
2023-06-28T01:38:42.204Z,4.03
2023-06-28T01:39:44.197Z,4.05
2023-06-28T01:40:50.018Z,3.60
2023-06-28T01:41:53.804Z,4.18
2023-06-28T01:42:56.206Z,4.07
2023-06-28T01:43:58.033Z,3.35
2023-06-28T01:44:59.955Z,3.60
2023-06-28T01:46:02.612Z,4.00
2023-06-28T01:47:04.635Z,3.88
2023-06-28T01:48:06.998Z,3.63
2023-06-28T01:49:09.134Z,3.92
2023-06-28T01:50:12.320Z,3.70
2023-06-28T01:51:14.309Z,3.97
2023-06-28T01:52:17.355Z,4.10
2023-06-28T01:53:19.812Z,3.50
2023-06-28T01:54:22.728Z,4.20
2023-06-28T01:55:24.662Z,4.78
2023-06-28T01:56:26.562Z,3.55
2023-06-28T01:57:28.534Z,4.80
2023-06-28T01:58:30.395Z,3.78
2023-06-28T01:59:32.334Z,3.65
2023-06-28T02:00:34.284Z,4.20
2023-06-28T02:01:36.830Z,3.55
2023-06-28T02:02:40.732Z,3.08
2023-06-28T02:03:42.637Z,4.00
2023-06-28T02:04:44.608Z,4.32
2023-06-28T02:05:46.642Z,4.25
2023-06-28T02:06:48.687Z,4.18
2023-06-28T02:07:50.568Z,3.80
2023-06-28T02:08:52.424Z,4.38
2023-06-28T02:09:54.391Z,4.13
2023-06-28T02:10:56.322Z,4.35
2023-06-28T02:11:58.212Z,3.67
2023-06-28T02:13:00.085Z,3.67
2023-06-28T02:14:04.698Z,4.22
2023-06-28T02:15:07.383Z,3.53
2023-06-28T02:16:09.422Z,4.18
2023-06-28T02:17:15.360Z,3.92
2023-06-28T02:18:18.717Z,4.15
2023-06-28T02:19:20.638Z,3.75
2023-06-28T02:20:22.735Z,3.65
2023-06-28T02:21:24.648Z,3.67
2023-06-28T02:22:29.294Z,4.03
2023-06-28T02:23:31.238Z,5.10
2023-06-28T02:24:33.143Z,4.00
2023-06-28T02:25:34.957Z,4.00
2023-06-28T02:26:36.967Z,3.80
2023-06-28T02:27:38.942Z,3.97
2023-06-28T02:28:40.894Z,3.90
2023-06-28T02:29:43.005Z,4.43
2023-06-28T02:30:45.087Z,5.85
2023-06-28T02:31:47.189Z,3.65
2023-06-28T02:32:51.856Z,5.00
2023-06-28T02:33:54.089Z,4.78
2023-06-28T02:34:56.004Z,3.92
2023-06-28T02:35:57.998Z,4.15
2023-06-28T02:36:59.862Z,4.28
2023-06-28T02:38:01.698Z,4.20
2023-06-28T02:39:03.966Z,4.15
2023-06-28T02:40:06.818Z,4.95
2023-06-28T02:41:08.729Z,4.13
2023-06-28T02:42:12.960Z,5.97
2023-06-28T02:43:16.883Z,4.03
2023-06-28T02:44:18.937Z,4.20
2023-06-28T02:45:21.785Z,4.70
2023-06-28T02:46:24.560Z,4.70
2023-06-28T02:47:26.462Z,4.57
2023-06-28T02:48:28.406Z,4.07
2023-06-28T02:49:30.266Z,3.97
2023-06-28T02:50:32.210Z,4.47
2023-06-28T02:51:39.835Z,4.32
2023-06-28T02:52:43.776Z,4.32
2023-06-28T02:53:47.039Z,4.05
2023-06-28T02:54:48.973Z,3.85
2023-06-28T02:55:50.824Z,4.00
2023-06-28T02:56:58.312Z,3.88
2023-06-28T02:58:24.742Z,3.63
2023-06-28T02:59:26.737Z,4.22
2023-06-28T03:00:31.060Z,4.20
2023-06-28T03:01:33.127Z,3.90
2023-06-28T03:02:35.251Z,3.63
2023-06-28T03:03:38.039Z,4.00
2023-06-28T03:04:41.035Z,4.50
2023-06-28T03:05:44.589Z,4.60
2023-06-28T03:06:50.535Z,4.20
2023-06-28T03:07:52.671Z,5.13
2023-06-28T03:08:54.757Z,3.78
2023-06-28T03:09:56.640Z,4.25
2023-06-28T03:10:58.659Z,3.72
2023-06-28T03:12:00.523Z,3.85
2023-06-28T03:13:02.377Z,3.95
2023-06-28T03:14:04.288Z,4.25
2023-06-28T03:15:08.739Z,4.22
2023-06-28T03:16:10.664Z,4.20
2023-06-28T03:17:12.562Z,5.00
2023-06-28T03:18:15.713Z,3.83
2023-06-28T03:19:17.605Z,4.00
2023-06-28T03:20:21.620Z,3.97
2023-06-28T03:21:23.790Z,4.00
2023-06-28T03:22:25.591Z,3.70
2023-06-28T03:23:27.461Z,4.22
2023-06-28T03:24:29.654Z,3.95
2023-06-28T03:25:32.052Z,3.60
2023-06-28T03:26:35.684Z,4.20
2023-06-28T03:27:37.585Z,3.70
2023-06-28T03:28:41.066Z,3.92
2023-06-28T03:29:43.461Z,4.00
2023-06-28T03:30:45.493Z,4.10
2023-06-28T03:31:48.098Z,6.22
2023-06-28T03:32:50.220Z,3.33
2023-06-28T03:33:52.272Z,4.13
2023-06-28T03:34:54.280Z,3.45
2023-06-28T03:35:56.244Z,4.00
2023-06-28T03:37:04.482Z,3.60
2023-06-28T03:38:07.936Z,3.25
2023-06-28T03:39:09.817Z,3.30
2023-06-28T03:40:12.041Z,4.05
2023-06-28T03:41:14.356Z,3.70
2023-06-28T03:42:16.617Z,3.35
2023-06-28T03:43:18.664Z,3.40
2023-06-28T03:44:20.909Z,3.25
2023-06-28T03:45:22.794Z,3.60
2023-06-28T03:46:24.936Z,3.70
2023-06-28T03:47:26.887Z,3.55
2023-06-28T03:48:29.107Z,4.50
2023-06-28T03:49:31.006Z,3.70
2023-06-28T03:50:32.898Z,3.47
2023-06-28T03:51:34.863Z,3.47
2023-06-28T03:52:37.467Z,3.65
2023-06-28T03:53:40.630Z,3.20
2023-06-28T03:54:42.581Z,3.22
2023-06-28T03:55:45.868Z,3.05
2023-06-28T03:56:47.698Z,3.22
2023-06-28T03:57:51.275Z,3.78
2023-06-28T03:58:53.330Z,3.55
2023-06-28T03:59:55.233Z,3.78
2023-06-28T04:00:57.243Z,3.63
2023-06-28T04:01:59.358Z,3.20
2023-06-28T04:03:02.470Z,3.70
2023-06-28T04:04:04.480Z,3.55
2023-06-28T04:05:06.795Z,3.38
2023-06-28T04:06:08.624Z,3.75
2023-06-28T04:07:10.598Z,3.42
2023-06-28T04:08:12.531Z,3.22
2023-06-28T04:09:14.665Z,3.55
2023-06-28T04:10:16.536Z,3.80
2023-06-28T04:11:18.366Z,3.38
2023-06-28T04:12:20.259Z,3.42
2023-06-28T04:13:22.101Z,4.72
2023-06-28T04:14:27.643Z,3.42
2023-06-28T04:15:29.491Z,3.50
2023-06-28T04:16:31.401Z,3.85
2023-06-28T04:17:33.292Z,4.00
2023-06-28T04:18:35.635Z,3.50
2023-06-28T04:19:37.594Z,3.67
2023-06-28T04:20:39.973Z,3.47
2023-06-28T04:21:41.958Z,3.88
2023-06-28T04:22:43.907Z,4.10
2023-06-28T04:23:46.110Z,5.10
2023-06-28T04:24:47.974Z,3.42
2023-06-28T04:25:49.787Z,4.75
2023-06-28T04:26:51.705Z,4.32
2023-06-28T04:27:53.563Z,4.10
2023-06-28T04:28:55.427Z,4.63
2023-06-28T04:29:57.329Z,4.28
2023-06-28T04:30:59.223Z,4.53
2023-06-28T04:32:04.751Z,3.95
2023-06-28T04:33:06.728Z,5.05
2023-06-28T04:34:08.751Z,4.43
2023-06-28T04:35:11.227Z,4.40
2023-06-28T04:36:13.337Z,4.55
2023-06-28T04:37:16.164Z,6.03
2023-06-28T04:38:20.413Z,4.50
2023-06-28T04:39:22.332Z,3.88
2023-06-28T04:40:24.249Z,4.28
2023-06-28T04:41:26.939Z,4.00
2023-06-28T04:42:28.813Z,3.55
2023-06-28T04:43:30.638Z,4.05
2023-06-28T04:44:35.371Z,4.32
2023-06-28T04:45:38.877Z,4.57
2023-06-28T04:46:45.499Z,3.85
2023-06-28T04:47:47.401Z,4.32
2023-06-28T04:48:50.007Z,4.38
2023-06-28T04:49:51.884Z,4.07
2023-06-28T04:50:53.879Z,4.53
2023-06-28T04:51:55.826Z,4.03
2023-06-28T04:52:57.629Z,4.75
2023-06-28T04:54:00.308Z,3.83
2023-06-28T04:55:02.225Z,4.22
2023-06-28T04:56:05.382Z,4.47
2023-06-28T04:57:07.476Z,4.50
2023-06-28T04:58:09.285Z,4.72
2023-06-28T04:59:11.403Z,4.50
2023-06-28T05:00:14.022Z,4.13
2023-06-28T05:01:15.894Z,4.25
2023-06-28T05:02:17.864Z,4.40
2023-06-28T05:03:19.805Z,4.10
2023-06-28T05:04:21.715Z,3.75
2023-06-28T05:05:25.615Z,3.88
2023-06-28T05:06:30.008Z,4.63
2023-06-28T05:07:31.944Z,4.03
2023-06-28T05:08:33.970Z,4.30
2023-06-28T05:09:36.931Z,4.60
2023-06-28T05:10:38.729Z,4.20
2023-06-28T05:11:40.897Z,5.28
2023-06-28T05:12:42.717Z,3.88
2023-06-28T05:13:44.609Z,4.18
2023-06-28T05:14:46.521Z,4.38
2023-06-28T05:15:48.544Z,4.38
2023-06-28T05:16:50.385Z,4.40
2023-06-28T05:17:52.274Z,4.63
2023-06-28T05:18:54.168Z,4.22
2023-06-28T05:19:55.984Z,4.45
2023-06-28T05:20:57.980Z,4.72
2023-06-28T05:21:59.896Z,4.00
2023-06-28T05:23:13.101Z,4.68
2023-06-28T05:24:17.420Z,4.05
2023-06-28T05:25:19.296Z,4.75
2023-06-28T05:26:21.221Z,4.13
2023-06-28T05:27:23.114Z,4.20
2023-06-28T05:28:27.184Z,4.10
2023-06-28T05:29:31.966Z,4.85
2023-06-28T05:30:34.474Z,4.47
2023-06-28T05:31:38.124Z,4.28
2023-06-28T05:32:40.327Z,4.45
2023-06-28T05:33:42.243Z,4.60
2023-06-28T05:34:44.175Z,4.05
2023-06-28T05:35:46.089Z,4.38
2023-06-28T05:36:47.925Z,4.05
2023-06-28T05:37:49.782Z,5.00
2023-06-28T05:38:53.747Z,4.88
2023-06-28T05:39:55.694Z,4.75
2023-06-28T05:41:12.685Z,4.95
2023-06-28T05:42:14.565Z,4.18
2023-06-28T05:43:16.383Z,4.88
2023-06-28T05:44:22.153Z,4.30
2023-06-28T05:45:24.928Z,4.05
2023-06-28T05:46:26.729Z,5.35
2023-06-28T05:47:28.621Z,4.63
2023-06-28T05:48:33.753Z,4.30
2023-06-28T05:49:39.046Z,4.63
2023-06-28T05:50:45.895Z,4.18
2023-06-28T05:51:48.058Z,4.50
2023-06-28T05:52:50.926Z,4.47
2023-06-28T05:53:53.013Z,5.18
2023-06-28T05:54:54.857Z,4.50
2023-06-28T05:55:57.279Z,4.22
2023-06-28T05:56:59.126Z,5.40
2023-06-28T05:58:01.136Z,4.53
2023-06-28T05:59:02.985Z,4.28
2023-06-28T06:00:05.982Z,4.63
2023-06-28T06:01:08.029Z,4.20
2023-06-28T06:02:09.920Z,4.22
2023-06-28T06:03:12.079Z,3.80
2023-06-28T06:04:14.173Z,3.92
2023-06-28T06:05:16.289Z,3.92
2023-06-28T06:06:19.032Z,4.50
2023-06-28T06:07:20.954Z,4.05
2023-06-28T06:08:22.851Z,4.07
2023-06-28T06:09:24.693Z,3.80
2023-06-28T06:10:26.671Z,4.10
2023-06-28T06:11:28.549Z,4.07
2023-06-28T06:12:30.356Z,4.60
2023-06-28T06:13:32.534Z,4.15
2023-06-28T06:14:34.520Z,3.92
2023-06-28T06:15:36.512Z,3.42
2023-06-28T06:16:38.364Z,3.90
2023-06-28T06:17:40.353Z,5.88
2023-06-28T06:18:42.422Z,3.75
2023-06-28T06:19:44.302Z,4.10
2023-06-28T06:20:46.126Z,3.72
2023-06-28T06:21:48.018Z,3.70
2023-06-28T06:22:50.953Z,4.32
2023-06-28T06:23:52.954Z,3.78
2023-06-28T06:24:54.912Z,3.72
2023-06-28T06:25:56.834Z,3.80
2023-06-28T06:26:59.716Z,4.13
2023-06-28T06:28:01.659Z,4.10
2023-06-28T06:29:04.164Z,3.67
2023-06-28T06:30:06.735Z,3.83
2023-06-28T06:31:14.450Z,3.70
2023-06-28T06:32:16.782Z,3.72
2023-06-28T06:33:18.724Z,3.65
2023-06-28T06:34:20.628Z,4.10
2023-06-28T06:35:22.435Z,3.50
2023-06-28T06:36:24.244Z,3.55
2023-06-28T06:37:26.241Z,3.60
2023-06-28T06:38:28.043Z,3.83
2023-06-28T06:39:29.931Z,3.22
2023-06-28T06:40:32.080Z,3.55
2023-06-28T06:41:33.976Z,3.53
2023-06-28T06:42:36.523Z,3.58
2023-06-28T06:43:38.366Z,3.47
2023-06-28T06:44:40.173Z,3.72
2023-06-28T06:45:41.990Z,3.88
2023-06-28T06:46:43.789Z,3.78
2023-06-28T06:47:46.245Z,3.67
2023-06-28T06:48:48.854Z,4.55
2023-06-28T06:49:50.762Z,3.97
2023-06-28T06:50:52.560Z,3.85
2023-06-28T06:51:55.162Z,3.33
2023-06-28T06:52:56.995Z,3.97
2023-06-28T06:53:58.862Z,3.78
2023-06-28T06:55:00.887Z,4.00
2023-06-28T06:56:02.805Z,3.60
2023-06-28T06:57:05.094Z,4.13
2023-06-28T06:58:07.011Z,3.80
2023-06-28T06:59:08.981Z,3.83
2023-06-28T07:00:11.454Z,3.35
2023-06-28T07:01:13.311Z,3.70
2023-06-28T07:02:15.214Z,3.45
2023-06-28T07:03:17.070Z,3.47
2023-06-28T07:04:20.324Z,3.83
2023-06-28T07:05:22.179Z,3.28
2023-06-28T07:06:24.156Z,3.60
2023-06-28T07:07:26.122Z,3.95
2023-06-28T07:08:28.400Z,3.47
2023-06-28T07:09:30.243Z,3.65
2023-06-28T07:10:32.055Z,3.47
2023-06-28T07:11:33.872Z,3.50
2023-06-28T07:12:35.728Z,3.42
2023-06-28T07:13:38.197Z,3.30
2023-06-28T07:14:40.041Z,3.78
2023-06-28T07:15:42.101Z,3.35
2023-06-28T07:16:46.395Z,3.40
2023-06-28T07:17:48.917Z,3.30
2023-06-28T07:18:55.110Z,3.58
2023-06-28T07:19:57.387Z,3.58
2023-06-28T07:20:59.330Z,3.47
2023-06-28T07:22:01.356Z,3.90
2023-06-28T07:23:03.218Z,3.83
2023-06-28T07:24:05.558Z,3.40
2023-06-28T07:25:07.786Z,3.72
2023-06-28T07:26:09.686Z,3.88
2023-06-28T07:27:11.529Z,3.03
2023-06-28T07:28:13.451Z,4.05
2023-06-28T07:29:15.362Z,4.20
2023-06-28T07:30:17.629Z,3.78
2023-06-28T07:31:19.565Z,3.60
2023-06-28T07:32:21.949Z,3.75
2023-06-28T07:33:24.461Z,3.42
2023-06-28T07:34:26.483Z,3.55
2023-06-28T07:35:28.349Z,3.55
2023-06-28T07:36:30.227Z,4.00
2023-06-28T07:37:32.109Z,3.70
2023-06-28T07:38:34.380Z,3.50
2023-06-28T07:39:36.241Z,3.58
2023-06-28T07:40:38.229Z,3.20
2023-06-28T07:41:40.038Z,3.42
2023-06-28T07:42:43.875Z,3.50
2023-06-28T07:43:45.688Z,3.50
2023-06-28T07:44:47.573Z,3.70
2023-06-28T07:45:49.942Z,4.10
2023-06-28T07:46:51.833Z,3.55
2023-06-28T07:47:53.710Z,3.45
2023-06-28T07:48:57.432Z,3.10
2023-06-28T07:49:59.235Z,3.70
2023-06-28T07:51:01.120Z,3.38
2023-06-28T07:52:03.058Z,3.42
2023-06-28T07:53:05.819Z,3.38
2023-06-28T07:54:11.530Z,3.47
2023-06-28T07:55:18.693Z,3.67
2023-06-28T07:56:20.773Z,3.50
2023-06-28T07:57:22.702Z,3.80
2023-06-28T07:58:24.674Z,3.75
2023-06-28T07:59:26.555Z,3.95
2023-06-28T08:00:29.869Z,3.55
2023-06-28T08:01:33.737Z,3.53
2023-06-28T08:02:35.735Z,3.80
2023-06-28T08:03:37.728Z,3.83
2023-06-28T08:04:40.868Z,3.45
2023-06-28T08:05:44.198Z,3.78
2023-06-28T08:06:46.219Z,3.20
2023-06-28T08:07:49.178Z,3.35
2023-06-28T08:08:52.041Z,3.72
2023-06-28T08:09:53.878Z,3.90
2023-06-28T08:10:55.913Z,3.60
2023-06-28T08:11:57.758Z,3.15
2023-06-28T08:12:59.741Z,3.70
2023-06-28T08:14:01.655Z,3.60
2023-06-28T08:15:03.703Z,3.38
2023-06-28T08:16:05.753Z,3.78
2023-06-28T08:17:07.574Z,4.10
2023-06-28T08:18:11.143Z,3.10
2023-06-28T08:19:14.473Z,3.97
2023-06-28T08:20:16.396Z,3.20
2023-06-28T08:21:18.391Z,3.05
2023-06-28T08:22:22.270Z,3.25
2023-06-28T08:23:24.227Z,3.92
2023-06-28T08:24:26.093Z,3.38
2023-06-28T08:25:27.926Z,3.30
2023-06-28T08:26:29.752Z,3.33
2023-06-28T08:27:31.592Z,3.30
2023-06-28T08:28:36.841Z,3.78
2023-06-28T08:29:45.529Z,3.50
2023-06-28T08:30:47.483Z,3.25
2023-06-28T08:31:50.249Z,3.53
2023-06-28T08:32:52.131Z,3.33
2023-06-28T08:33:54.062Z,3.58
2023-06-28T08:34:56.013Z,3.53
2023-06-28T08:35:57.824Z,4.80
2023-06-28T08:36:59.716Z,3.10
2023-06-28T08:38:01.592Z,3.53
2023-06-28T08:39:03.707Z,3.45
2023-06-28T08:40:06.475Z,3.28
2023-06-28T08:41:09.898Z,3.50
2023-06-28T08:42:12.747Z,3.00
2023-06-28T08:43:17.208Z,3.55
2023-06-28T08:44:21.561Z,3.97
2023-06-28T08:45:24.664Z,3.38
2023-06-28T08:46:29.278Z,3.50
2023-06-28T08:47:34.129Z,3.60
2023-06-28T08:48:36.809Z,3.55
2023-06-28T08:49:39.073Z,3.40
2023-06-28T08:50:44.913Z,3.08
2023-06-28T08:51:47.624Z,3.35
2023-06-28T08:52:51.439Z,6.72
2023-06-28T08:53:55.591Z,3.30
2023-06-28T08:54:59.039Z,3.45
2023-06-28T08:56:02.925Z,3.42
2023-06-28T08:57:12.398Z,3.13
2023-06-28T08:58:15.387Z,4.18
2023-06-28T08:59:17.358Z,3.17
2023-06-28T09:00:19.523Z,5.18
2023-06-28T09:01:25.662Z,3.80
2023-06-28T09:02:31.598Z,3.25
2023-06-28T09:03:34.505Z,3.80
2023-06-28T09:04:37.070Z,3.58
2023-06-28T09:05:39.260Z,3.58
2023-06-28T09:06:41.531Z,3.13
2023-06-28T09:07:44.152Z,3.45
2023-06-28T09:08:46.398Z,5.38
2023-06-28T09:09:51.973Z,4.20
2023-06-28T09:10:54.174Z,3.30
2023-06-28T09:11:56.470Z,5.32
2023-06-28T09:12:58.558Z,3.10
2023-06-28T09:14:00.575Z,3.97
2023-06-28T09:15:04.271Z,3.13
2023-06-28T09:16:10.764Z,3.85
2023-06-28T09:17:12.715Z,3.17
2023-06-28T09:18:16.541Z,3.97
2023-06-28T09:19:18.445Z,3.55
2023-06-28T09:20:21.972Z,3.42
2023-06-28T09:21:28.278Z,4.20
2023-06-28T09:22:30.509Z,6.78
2023-06-28T09:23:34.717Z,3.75
2023-06-28T09:24:37.459Z,3.58
2023-06-28T09:25:43.142Z,6.05
2023-06-28T09:26:45.436Z,3.20
2023-06-28T09:27:47.377Z,3.28
2023-06-28T09:29:12.359Z,3.25
2023-06-28T09:30:20.336Z,2.80
2023-06-28T09:31:22.257Z,4.32
2023-06-28T09:32:24.212Z,3.95
2023-06-28T09:33:26.791Z,3.28
2023-06-28T09:34:28.831Z,3.28
2023-06-28T09:35:30.770Z,3.22
2023-06-28T09:36:34.128Z,3.50
2023-06-28T09:37:35.978Z,3.80
2023-06-28T09:38:45.211Z,3.28
2023-06-28T09:39:47.894Z,4.13
2023-06-28T09:41:01.050Z,5.03
2023-06-28T09:42:04.393Z,4.25
2023-06-28T09:43:06.299Z,4.53
2023-06-28T09:44:10.301Z,3.60
2023-06-28T09:45:30.368Z,3.50
2023-06-28T09:46:33.912Z,4.57
2023-06-28T09:47:35.788Z,3.30
2023-06-28T09:48:38.354Z,3.17
2023-06-28T09:49:40.732Z,3.25
2023-06-28T09:50:46.492Z,4.18
2023-06-28T09:52:04.065Z,4.95
2023-06-28T09:53:20.637Z,5.15
2023-06-28T09:54:22.421Z,3.20
2023-06-28T09:55:26.529Z,6.63
2023-06-28T09:56:41.801Z,6.72
2023-06-28T09:57:44.253Z,3.70
2023-06-28T09:58:49.664Z,4.57
2023-06-28T09:59:54.575Z,5.70
2023-06-28T10:00:57.176Z,3.58
2023-06-28T10:02:02.444Z,3.35
2023-06-28T10:03:07.542Z,3.45
2023-06-28T10:04:13.505Z,4.30
2023-06-28T10:05:16.083Z,4.95
2023-06-28T10:06:18.676Z,3.35
2023-06-28T10:07:21.572Z,3.88
2023-06-28T10:08:24.000Z,3.22
2023-06-28T10:09:29.914Z,2.90
2023-06-28T10:10:35.562Z,3.40
2023-06-28T10:11:40.887Z,3.85
2023-06-28T10:12:46.219Z,3.42
2023-06-28T10:13:50.327Z,3.38
2023-06-28T10:14:59.532Z,3.17
2023-06-28T10:16:10.589Z,3.08
2023-06-28T10:17:13.523Z,3.45
2023-06-28T10:18:16.762Z,3.20
2023-06-28T10:19:19.300Z,3.00
2023-06-28T10:20:21.518Z,3.10
2023-06-28T10:21:23.681Z,3.45
2023-06-28T10:22:25.684Z,3.53
2023-06-28T10:23:28.076Z,3.10
2023-06-28T10:24:33.359Z,3.17
2023-06-28T10:25:35.544Z,2.80
2023-06-28T10:26:38.347Z,2.65
2023-06-28T10:27:40.653Z,4.78
2023-06-28T10:28:42.940Z,2.83
2023-06-28T10:29:49.085Z,2.85
2023-06-28T10:30:52.668Z,2.75
2023-06-28T10:31:55.704Z,2.95
2023-06-28T10:32:59.361Z,2.78
2023-06-28T10:34:01.334Z,2.80
2023-06-28T10:35:04.328Z,2.20
2023-06-28T10:36:06.327Z,2.70
2023-06-28T10:37:08.290Z,2.97
2023-06-28T10:38:10.535Z,2.95
2023-06-28T10:39:12.584Z,2.65
2023-06-28T10:40:14.511Z,3.30
2023-06-28T10:41:17.297Z,3.30
2023-06-28T10:42:20.386Z,2.72
2023-06-28T10:43:26.086Z,2.60
2023-06-28T10:44:28.084Z,2.90
2023-06-28T10:45:39.332Z,2.65
2023-06-28T10:46:41.637Z,2.63
2023-06-28T10:47:56.493Z,3.03
2023-06-28T10:49:02.453Z,2.80
2023-06-28T10:50:16.635Z,3.25
2023-06-28T10:51:24.801Z,2.92
2023-06-28T10:52:28.642Z,3.05
2023-06-28T10:53:30.622Z,3.30
2023-06-28T10:54:32.632Z,2.78
2023-06-28T10:55:36.110Z,3.33
2023-06-28T10:57:08.597Z,3.10
2023-06-28T10:58:13.210Z,3.63
2023-06-28T10:59:15.317Z,2.60
2023-06-28T11:00:41.882Z,2.22
2023-06-28T11:01:49.551Z,3.58
2023-06-28T11:03:00.884Z,2.75
2023-06-28T11:04:13.878Z,2.90
2023-06-28T11:05:39.095Z,3.15
2023-06-28T11:06:41.568Z,3.00
2023-06-28T11:07:52.625Z,4.57
2023-06-28T11:08:54.571Z,3.55
2023-06-28T11:10:15.615Z,3.20
2023-06-28T11:11:35.635Z,3.78
2023-06-28T11:12:41.868Z,2.60
2023-06-28T11:13:46.492Z,2.67
2023-06-28T11:14:48.386Z,2.70
2023-06-28T11:15:50.966Z,2.78
2023-06-28T11:17:00.985Z,2.97
2023-06-28T11:18:12.139Z,3.15
2023-06-28T11:19:15.852Z,2.97
2023-06-28T11:20:17.680Z,2.67
2023-06-28T11:21:26.432Z,2.75
2023-06-28T11:22:54.616Z,2.80
2023-06-28T11:23:57.599Z,2.90
2023-06-28T11:25:02.697Z,2.53
2023-06-28T11:26:06.909Z,2.70
2023-06-28T11:27:14.103Z,2.92
2023-06-28T11:28:23.169Z,2.53
2023-06-28T11:29:25.085Z,2.60
2023-06-28T11:30:49.614Z,2.40
2023-06-28T11:31:58.911Z,2.38
2023-06-28T11:33:00.851Z,2.50
2023-06-28T11:34:02.729Z,3.22
2023-06-28T11:35:05.585Z,2.60
2023-06-28T11:36:09.184Z,2.15
2023-06-28T11:37:12.742Z,2.50
2023-06-28T11:38:15.288Z,2.17
2023-06-28T11:39:27.086Z,2.67
2023-06-28T11:40:29.297Z,2.53
2023-06-28T11:41:35.422Z,2.50
2023-06-28T11:42:43.259Z,2.40
2023-06-28T11:43:46.367Z,2.38
2023-06-28T11:44:52.578Z,2.42
2023-06-28T11:45:54.873Z,2.20
2023-06-28T11:46:56.828Z,2.33
2023-06-28T11:47:58.817Z,2.50
2023-06-28T11:49:01.360Z,2.30
2023-06-28T11:50:05.529Z,2.25
2023-06-28T11:51:07.489Z,2.50
2023-06-28T11:52:10.196Z,2.40
2023-06-28T11:53:13.192Z,2.47
2023-06-28T11:54:17.145Z,2.35
2023-06-28T11:55:20.307Z,2.55
2023-06-28T11:56:48.134Z,2.35
2023-06-28T11:57:49.943Z,2.45
2023-06-28T11:58:53.416Z,2.40
2023-06-28T11:59:57.068Z,2.20
2023-06-28T12:01:00.406Z,2.25
2023-06-28T12:02:07.262Z,2.20
2023-06-28T12:03:09.227Z,2.30
2023-06-28T12:04:16.488Z,2.20
2023-06-28T12:05:22.328Z,1.95
2023-06-28T12:06:24.346Z,2.05
2023-06-28T12:07:26.290Z,2.47
2023-06-28T12:08:36.534Z,2.20
2023-06-28T12:09:38.583Z,2.33
2023-06-28T12:10:41.367Z,2.25
2023-06-28T12:11:54.920Z,2.20
2023-06-28T12:12:56.840Z,2.08
2023-06-28T12:14:04.611Z,2.35
2023-06-28T12:15:07.345Z,2.17
2023-06-28T12:16:17.504Z,2.30
2023-06-28T12:17:19.384Z,2.22
2023-06-28T12:18:21.381Z,2.30
2023-06-28T12:19:34.339Z,2.08
2023-06-28T12:20:36.255Z,2.13
2023-06-28T12:21:39.385Z,2.40
2023-06-28T12:22:42.048Z,2.33
2023-06-28T12:23:45.260Z,2.58
2023-06-28T12:24:47.837Z,2.33
2023-06-28T12:25:49.735Z,2.38
2023-06-28T12:26:56.256Z,2.58
2023-06-28T12:28:03.930Z,2.08
2023-06-28T12:29:07.901Z,2.40
2023-06-28T12:30:12.990Z,2.70
2023-06-28T12:31:16.090Z,2.30
2023-06-28T12:32:21.746Z,2.40
2023-06-28T12:33:24.489Z,2.22
2023-06-28T12:34:32.888Z,2.25
2023-06-28T12:35:35.421Z,2.45
2023-06-28T12:36:40.178Z,1.90
2023-06-28T12:37:44.265Z,2.25
2023-06-28T12:38:47.185Z,2.40
2023-06-28T12:39:49.780Z,2.35
2023-06-28T12:40:51.638Z,2.00
2023-06-28T12:42:07.008Z,2.10
2023-06-28T12:43:16.050Z,2.10
2023-06-28T12:44:20.858Z,2.10
2023-06-28T12:45:23.090Z,2.25
2023-06-28T12:46:26.972Z,2.08
2023-06-28T12:47:30.538Z,2.15
2023-06-28T12:48:33.525Z,2.10
2023-06-28T12:49:40.029Z,1.90
2023-06-28T12:50:41.908Z,2.13
2023-06-28T12:51:43.806Z,2.58
2023-06-28T12:52:45.648Z,2.15
2023-06-28T12:53:47.522Z,2.33
2023-06-28T12:54:52.253Z,1.88
2023-06-28T12:55:54.209Z,2.20
2023-06-28T12:56:56.081Z,2.28
2023-06-28T12:57:58.062Z,2.00
2023-06-28T12:58:59.948Z,1.95
2023-06-28T13:00:01.816Z,2.03
2023-06-28T13:01:04.261Z,2.00
2023-06-28T13:02:06.691Z,1.90
2023-06-28T13:03:11.049Z,1.73
2023-06-28T13:04:13.422Z,2.00
2023-06-28T13:05:15.337Z,2.03
2023-06-28T13:06:17.189Z,2.10
2023-06-28T13:07:19.106Z,2.10
2023-06-28T13:08:21.092Z,2.00
2023-06-28T13:09:22.969Z,2.03
2023-06-28T13:10:24.837Z,1.98
2023-06-28T13:11:32.261Z,2.40
2023-06-28T13:12:34.073Z,2.30
2023-06-28T13:13:36.262Z,2.15
2023-06-28T13:14:38.250Z,2.50
2023-06-28T13:15:40.324Z,2.00
2023-06-28T13:16:43.356Z,2.05
2023-06-28T13:17:46.477Z,2.40
2023-06-28T13:18:48.298Z,2.28
2023-06-28T13:19:50.404Z,2.20
2023-06-28T13:20:52.218Z,2.38
2023-06-28T13:21:54.262Z,2.53
2023-06-28T13:22:56.193Z,2.28
2023-06-28T13:23:58.116Z,1.85
2023-06-28T13:24:59.961Z,2.10
2023-06-28T13:26:01.822Z,2.67
2023-06-28T13:27:03.866Z,2.25
2023-06-28T13:28:05.772Z,2.10
2023-06-28T13:29:07.608Z,2.25
2023-06-28T13:30:09.717Z,1.98
2023-06-28T13:31:11.696Z,2.13
2023-06-28T13:32:13.579Z,2.30
2023-06-28T13:33:15.397Z,2.20
2023-06-28T13:34:17.382Z,2.00
2023-06-28T13:35:19.376Z,2.00
2023-06-28T13:36:22.979Z,2.20
2023-06-28T13:37:28.277Z,2.13
2023-06-28T13:38:30.967Z,2.10
2023-06-28T13:39:32.923Z,2.30
2023-06-28T13:40:34.767Z,3.03
2023-06-28T13:41:37.028Z,2.47
2023-06-28T13:42:38.861Z,2.20
2023-06-28T13:43:40.900Z,2.13
2023-06-28T13:44:42.709Z,2.30
2023-06-28T13:45:44.648Z,1.88
2023-06-28T13:46:46.910Z,2.03
2023-06-28T13:47:48.818Z,1.90
2023-06-28T13:48:50.663Z,2.22
2023-06-28T13:49:52.546Z,2.08
2023-06-28T13:50:54.630Z,2.20
2023-06-28T13:51:56.444Z,1.90
2023-06-28T13:52:58.564Z,2.17
2023-06-28T13:54:00.714Z,2.10
2023-06-28T13:55:02.951Z,1.80
2023-06-28T13:56:05.059Z,2.05
2023-06-28T13:57:07.364Z,1.90
2023-06-28T13:58:09.538Z,1.88
2023-06-28T13:59:11.484Z,1.83
2023-06-28T14:00:14.389Z,2.35
2023-06-28T14:01:16.398Z,2.00
2023-06-28T14:02:18.547Z,2.20
2023-06-28T14:03:20.516Z,1.85